Time;durP1;ratioP1;P1;durP2;ratioP2;P2;SDS_P1;SDS_P2;PMS_P1;PMS_P2;Temp;Humidity;BMP_temperature;BMP_pressure;BME280_temperature;BME280_humidity;BME280_pressure;Samples;Min_cycle;Max_cycle;Signal;HPM_P1;HPM_P2
2023/09/15 00:00:27;;;;;;;5.88;3.25;;;12.40;99.90;;;;;;7371673;19;20058;-63
2023/09/15 00:02:55;;;;;;;6.47;3.35;;;12.40;99.90;;;;;;7376748;19;20461;-63
2023/09/15 00:05:26;;;;;;;10.73;4.20;;;12.40;99.90;;;;;;7374526;19;20017;-63
2023/09/15 00:07:52;;;;;;;11.25;3.75;;;12.30;99.90;;;;;;7373265;19;20866;-63
2023/09/15 00:10:19;;;;;;;10.48;4.22;;;12.30;99.90;;;;;;7373562;19;20365;-63
2023/09/15 00:12:45;;;;;;;6.72;3.75;;;12.20;99.90;;;;;;7376331;19;20588;-63
2023/09/15 00:15:12;;;;;;;9.82;3.75;;;12.20;99.90;;;;;;7370975;19;20376;-63
2023/09/15 00:17:41;;;;;;;9.05;3.20;;;12.20;99.90;;;;;;7373096;19;20021;-64
2023/09/15 00:20:13;;;;;;;7.45;3.45;;;12.10;99.90;;;;;;7375210;19;20019;-63
2023/09/15 00:23:00;;;;;;;8.98;4.07;;;12.20;99.90;;;;;;7375053;19;20470;-63
2023/09/15 00:25:28;;;;;;;10.35;3.90;;;12.10;99.90;;;;;;7372682;19;20017;-63
2023/09/15 00:28:00;;;;;;;7.20;3.60;;;12.10;99.90;;;;;;7376219;19;20040;-63
2023/09/15 00:30:28;;;;;;;7.10;3.75;;;12.10;99.90;;;;;;7371817;19;20042;-63
2023/09/15 00:32:55;;;;;;;6.18;3.53;;;12.10;99.90;;;;;;7377024;19;20026;-60
2023/09/15 00:35:28;;;;;;;7.53;3.90;;;12.10;99.90;;;;;;7370157;19;20015;-60
2023/09/15 00:37:57;;;;;;;;;;;12.10;99.90;;;;;;7375753;19;20114;-60
2023/09/15 00:40:24;;;;;;;6.30;3.25;;;12.10;99.90;;;;;;7364718;19;19921;-60
2023/09/15 00:42:51;;;;;;;7.65;4.15;;;12.00;99.90;;;;;;7373629;19;20018;-60
2023/09/15 00:45:19;;;;;;;9.93;3.47;;;12.00;99.90;;;;;;7375369;19;20025;-59
2023/09/15 00:47:52;;;;;;;8.32;4.20;;;12.00;99.90;;;;;;7372322;19;20025;-60
2023/09/15 00:50:22;;;;;;;10.93;3.70;;;12.00;99.90;;;;;;7372786;19;20065;-60
2023/09/15 00:52:54;;;;;;;12.50;3.63;;;12.00;99.90;;;;;;7374078;19;20022;-60
2023/09/15 00:55:24;;;;;;;7.75;4.10;;;11.90;99.90;;;;;;7371025;19;20053;-60
2023/09/15 00:57:52;;;;;;;7.15;3.85;;;11.90;99.90;;;;;;7371767;19;20018;-59
2023/09/15 01:00:20;;;;;;;6.40;3.67;;;11.90;99.90;;;;;;7373467;19;20952;-60
2023/09/15 01:02:47;;;;;;;7.47;4.38;;;11.90;99.90;;;;;;7373236;19;20034;-60
2023/09/15 01:05:21;;;;;;;7.68;4.18;;;11.80;99.90;;;;;;7370731;19;20019;-59
2023/09/15 01:07:50;;;;;;;11.07;3.88;;;11.80;99.90;;;;;;7372091;19;20049;-59
2023/09/15 01:10:18;;;;;;;7.28;3.70;;;11.80;99.90;;;;;;7373167;19;20497;-60
2023/09/15 01:12:49;;;;;;;7.18;4.10;;;11.70;99.90;;;;;;7372441;19;20044;-60
2023/09/15 01:15:17;;;;;;;;;;;11.70;99.90;;;;;;7373525;19;20027;-59
2023/09/15 01:18:00;;;;;;;8.10;4.35;;;11.70;99.90;;;;;;7371413;19;19926;-60
2023/09/15 01:20:58;;;;;;;9.23;4.15;;;11.70;99.90;;;;;;7369990;19;20018;-60
2023/09/15 01:23:52;;;;;;;9.93;4.40;;;11.70;99.90;;;;;;7366225;19;20015;-61
2023/09/15 01:26:36;;;;;;;8.15;3.95;;;11.60;99.90;;;;;;7370023;19;20053;-62
2023/09/15 01:29:28;;;;;;;6.57;3.92;;;11.70;99.90;;;;;;7376678;19;20022;-60
2023/09/15 01:31:56;;;;;;;;;;;11.60;99.90;;;;;;7372324;19;20018;-59
2023/09/15 01:34:24;;;;;;;11.57;4.53;;;11.60;99.90;;;;;;7367001;19;19929;-59
2023/09/15 01:36:53;;;;;;;8.52;3.90;;;11.50;99.90;;;;;;7373329;19;20125;-59
2023/09/15 01:39:20;;;;;;;9.40;3.80;;;11.50;99.90;;;;;;7369893;19;20030;-63
2023/09/15 01:41:46;;;;;;;7.82;4.53;;;11.60;99.90;;;;;;7373312;19;20417;-64
2023/09/15 01:44:12;;;;;;;10.27;4.78;;;11.50;99.90;;;;;;7370298;19;20022;-59
2023/09/15 01:46:39;;;;;;;6.47;3.70;;;11.50;99.90;;;;;;7368408;19;20018;-59
2023/09/15 01:49:06;;;;;;;7.78;4.07;;;11.50;99.90;;;;;;7364396;19;20401;-60
2023/09/15 01:51:34;;;;;;;9.95;3.88;;;11.50;99.90;;;;;;7371030;19;20014;-60
2023/09/15 01:54:00;;;;;;;8.70;3.75;;;11.40;99.90;;;;;;7366413;19;20047;-59
2023/09/15 01:56:29;;;;;;;7.57;3.90;;;11.40;99.90;;;;;;7368488;19;20022;-60
2023/09/15 01:58:55;;;;;;;6.97;3.85;;;11.40;99.90;;;;;;7369556;19;20015;-62
2023/09/15 02:01:22;;;;;;;8.23;3.67;;;11.40;99.90;;;;;;7370041;19;20605;-59
2023/09/15 02:04:10;;;;;;;9.77;4.38;;;11.30;99.90;;;;;;7367936;19;20385;-60
2023/09/15 02:06:37;;;;;;;5.82;4.00;;;11.30;99.90;;;;;;7370982;19;20113;-60
2023/09/15 02:09:06;;;;;;;8.23;4.35;;;11.30;99.90;;;;;;7377570;19;20896;-60
2023/09/15 02:11:33;;;;;;;6.80;3.97;;;11.20;99.90;;;;;;7376685;19;20018;-60
2023/09/15 02:14:02;;;;;;;8.02;4.70;;;11.20;99.90;;;;;;7375414;19;20032;-60
2023/09/15 02:16:48;;;;;;;7.65;4.20;;;11.10;99.90;;;;;;7376109;19;20696;-60
2023/09/15 02:19:14;;;;;;;9.90;4.00;;;11.20;99.90;;;;;;7374621;19;20018;-63
2023/09/15 02:21:40;;;;;;;9.52;4.20;;;11.10;99.90;;;;;;7375645;19;20031;-63
2023/09/15 02:24:07;;;;;;;7.55;3.55;;;11.10;99.90;;;;;;7374432;19;20022;-63
2023/09/15 02:26:33;;;;;;;6.38;4.03;;;11.00;99.90;;;;;;7374552;19;20018;-63
2023/09/15 02:28:59;;;;;;;7.20;4.45;;;11.00;99.90;;;;;;7375365;19;20034;-63
2023/09/15 02:31:25;;;;;;;11.93;4.40;;;10.90;99.90;;;;;;7375403;19;20027;-63
2023/09/15 02:33:52;;;;;;;9.38;4.10;;;10.90;99.90;;;;;;7371853;19;20015;-63
2023/09/15 02:36:18;;;;;;;6.18;3.50;;;10.90;99.90;;;;;;7377461;19;20040;-63
2023/09/15 02:38:45;;;;;;;6.00;3.55;;;10.90;99.90;;;;;;7373327;19;20020;-63
2023/09/15 02:41:11;;;;;;;7.72;4.00;;;10.80;99.90;;;;;;7376157;19;20025;-60
2023/09/15 02:43:38;;;;;;;7.55;3.97;;;10.80;99.90;;;;;;7372642;19;20034;-59
2023/09/15 02:46:04;;;;;;;5.85;4.07;;;10.80;99.90;;;;;;7377529;19;20025;-59
2023/09/15 02:48:32;;;;;;;8.57;4.38;;;10.80;99.90;;;;;;7376316;19;20077;-60
2023/09/15 02:50:58;;;;;;;8.27;4.45;;;10.80;99.90;;;;;;7377844;19;20015;-60
2023/09/15 02:53:45;;;;;;;11.15;4.07;;;10.80;99.90;;;;;;7373606;19;20077;-59
2023/09/15 02:56:31;;;;;;;7.75;4.35;;;10.80;99.90;;;;;;7373650;19;20055;-60
2023/09/15 02:59:18;;;;;;;8.77;4.88;;;10.80;99.90;;;;;;7369776;19;20010;-60
2023/09/15 03:01:44;;;;;;;6.32;4.03;;;10.80;99.90;;;;;;7374584;19;20026;-59
2023/09/15 03:04:10;;;;;;;8.90;4.45;;;10.70;99.90;;;;;;7370954;19;20018;-60
2023/09/15 03:06:39;;;;;;;11.23;4.13;;;10.70;99.90;;;;;;7374933;19;20974;-60
2023/09/15 03:09:06;;;;;;;7.97;4.43;;;10.60;99.90;;;;;;7374589;19;20022;-60
2023/09/15 03:11:52;;;;;;;8.55;4.28;;;10.60;99.90;;;;;;7371691;19;20764;-63
2023/09/15 03:14:19;;;;;;;9.13;4.72;;;10.50;99.90;;;;;;7370352;19;20015;-60
2023/09/15 03:17:07;;;;;;;7.47;4.53;;;10.60;99.90;;;;;;7373607;19;20011;-62
2023/09/15 03:19:34;;;;;;;7.75;4.47;;;10.60;99.90;;;;;;7370436;19;20023;-63
2023/09/15 03:22:01;;;;;;;9.40;5.20;;;10.50;99.90;;;;;;7373283;19;20018;-63
2023/09/15 03:24:29;;;;;;;7.25;5.20;;;10.50;99.90;;;;;;7367310;19;20019;-62
2023/09/15 03:26:56;;;;;;;8.32;5.07;;;10.50;99.90;;;;;;7372037;19;20030;-64
2023/09/15 03:29:22;;;;;;;8.57;4.80;;;10.40;99.90;;;;;;7372727;19;20035;-63
2023/09/15 03:31:48;;;;;;;13.55;5.40;;;10.40;99.90;;;;;;7372420;19;20019;-63
2023/09/15 03:34:15;;;;;;;17.20;5.70;;;10.40;99.90;;;;;;7369991;19;20015;-63
2023/09/15 03:36:41;;;;;;;10.80;5.57;;;10.40;99.90;;;;;;7369969;19;20919;-59
2023/09/15 03:39:09;;;;;;;6.50;4.82;;;10.40;99.90;;;;;;7375363;19;20024;-63
2023/09/15 03:41:35;;;;;;;8.43;5.38;;;10.40;99.90;;;;;;7365987;19;20021;-63
2023/09/15 03:44:01;;;;;;;9.68;5.45;;;10.30;99.90;;;;;;7371879;19;20018;-62
2023/09/15 03:46:27;;;;;;;7.85;5.10;;;10.30;99.90;;;;;;7367855;19;20022;-60
2023/09/15 03:49:14;;;;;;;7.68;5.00;;;10.30;99.90;;;;;;7375091;19;20022;-59
2023/09/15 03:51:41;;;;;;;11.70;5.55;;;10.30;99.90;;;;;;7369752;19;20007;-59
2023/09/15 03:54:08;;;;;;;8.05;5.40;;;10.20;99.90;;;;;;7373919;19;20035;-60
2023/09/15 03:56:34;;;;;;;11.25;5.03;;;10.20;99.90;;;;;;7369347;19;20607;-61
2023/09/15 03:59:03;;;;;;;8.90;6.50;;;10.20;99.90;;;;;;7373907;19;20022;-59
2023/09/15 04:01:31;;;;;;;9.90;5.45;;;10.10;99.90;;;;;;7370826;19;20106;-59
2023/09/15 04:03:59;;;;;;;10.50;5.40;;;10.10;99.90;;;;;;7373146;19;20019;-59
2023/09/15 04:06:25;;;;;;;9.63;5.78;;;10.10;99.90;;;;;;7371223;19;20033;-59
2023/09/15 04:08:53;;;;;;;7.90;5.00;;;10.00;99.90;;;;;;7373643;19;20646;-59
2023/09/15 04:11:19;;;;;;;9.18;5.80;;;10.00;99.90;;;;;;7376508;19;20031;-59
2023/09/15 04:13:45;;;;;;;9.88;5.60;;;10.00;99.90;;;;;;7374667;19;20018;-60
2023/09/15 04:16:32;;;;;;;10.57;5.65;;;10.00;99.90;;;;;;7368198;19;20086;-60
2023/09/15 04:18:58;;;;;;;10.95;5.60;;;10.00;99.90;;;;;;7371595;19;20026;-60
2023/09/15 04:21:34;;;;;;;11.00;5.70;;;9.90;99.90;;;;;;7370338;19;20056;-59
2023/09/15 04:24:02;;;;;;;7.18;5.03;;;9.90;99.90;;;;;;7369775;19;20059;-59
2023/09/15 04:26:29;;;;;;;7.90;5.55;;;9.80;99.90;;;;;;7370987;19;20048;-60
2023/09/15 04:28:58;;;;;;;6.78;5.45;;;9.90;99.90;;;;;;7368286;19;20763;-60
2023/09/15 04:31:24;;;;;;;10.48;5.63;;;9.80;99.90;;;;;;7371295;19;20478;-60
2023/09/15 04:33:50;;;;;;;8.98;5.97;;;9.80;99.90;;;;;;7369689;19;20026;-60
2023/09/15 04:36:17;;;;;;;12.07;5.90;;;9.80;99.90;;;;;;7369849;19;20057;-60
2023/09/15 04:38:43;;;;;;;8.90;5.60;;;9.70;99.90;;;;;;7370907;19;20018;-60
2023/09/15 04:41:10;;;;;;;8.43;6.10;;;9.70;99.90;;;;;;7367056;19;20374;-60
2023/09/15 04:43:37;;;;;;;12.32;6.38;;;9.70;99.90;;;;;;7366403;19;20038;-61
2023/09/15 04:46:04;;;;;;;10.27;6.18;;;9.70;99.90;;;;;;7371239;19;20022;-60
2023/09/15 04:48:30;;;;;;;8.95;5.78;;;9.70;99.90;;;;;;7365305;19;20676;-59
2023/09/15 04:50:56;;;;;;;9.18;6.97;;;9.60;99.90;;;;;;7372580;19;20019;-60
2023/09/15 04:53:23;;;;;;;8.45;5.63;;;9.60;99.90;;;;;;7365107;19;20110;-60
2023/09/15 04:55:49;;;;;;;7.43;5.57;;;9.70;99.90;;;;;;7372095;19;20014;-60
2023/09/15 04:58:16;;;;;;;8.68;6.15;;;9.60;99.90;;;;;;7368648;19;20500;-60
2023/09/15 05:00:45;;;;;;;8.95;5.97;;;9.60;99.90;;;;;;7369182;19;20166;-60
2023/09/15 05:03:12;;;;;;;12.57;6.95;;;9.60;99.90;;;;;;7367148;19;20026;-60
2023/09/15 05:05:38;;;;;;;8.73;5.75;;;9.60;99.90;;;;;;7368345;19;20030;-60
2023/09/15 05:08:05;;;;;;;7.57;5.38;;;9.60;99.90;;;;;;7369098;19;20765;-60
2023/09/15 05:10:31;;;;;;;7.68;5.93;;;9.60;99.90;;;;;;7369320;19;20517;-60
2023/09/15 05:12:58;;;;;;;8.38;5.82;;;9.60;99.90;;;;;;7365570;19;20781;-60
2023/09/15 05:15:26;;;;;;;11.07;6.47;;;9.60;99.90;;;;;;7370902;19;20037;-60
2023/09/15 05:17:53;;;;;;;8.77;5.85;;;9.60;99.90;;;;;;7366520;19;20106;-61
2023/09/15 05:20:19;;;;;;;11.13;6.30;;;9.60;99.90;;;;;;7369623;19;20165;-60
2023/09/15 05:23:06;;;;;;;7.97;5.90;;;9.60;99.90;;;;;;7370709;19;20014;-61
2023/09/15 05:25:34;;;;;;;10.93;6.18;;;9.70;99.90;;;;;;7366281;19;20376;-60
2023/09/15 05:28:21;;;;;;;7.65;5.43;;;9.60;99.90;;;;;;7369472;19;20790;-61
2023/09/15 05:30:47;;;;;;;7.78;6.00;;;9.60;99.90;;;;;;7367402;19;20595;-60
2023/09/15 05:33:16;;;;;;;12.27;6.47;;;9.70;99.90;;;;;;7367604;19;20517;-61
2023/09/15 05:35:43;;;;;;;13.60;5.80;;;9.70;99.90;;;;;;7369856;19;20029;-60
2023/09/15 05:38:09;;;;;;;9.13;6.32;;;9.70;99.90;;;;;;7370139;19;20478;-60
2023/09/15 05:40:36;;;;;;;11.68;6.22;;;9.70;99.90;;;;;;7372006;19;20015;-60
2023/09/15 05:43:05;;;;;;;9.63;6.40;;;9.70;99.90;;;;;;7377293;19;20369;-60
2023/09/15 05:45:31;;;;;;;9.68;6.03;;;9.70;99.90;;;;;;7376049;19;20775;-60
2023/09/15 05:47:57;;;;;;;10.55;5.93;;;9.70;99.90;;;;;;7377383;19;20631;-60
2023/09/15 05:50:24;;;;;;;9.18;5.97;;;9.80;99.90;;;;;;7374627;19;20660;-60
2023/09/15 05:52:50;;;;;;;9.00;6.22;;;9.80;99.90;;;;;;7373615;19;20477;-60
2023/09/15 05:55:16;;;;;;;11.98;5.50;;;9.90;99.90;;;;;;7375666;19;20022;-60
2023/09/15 05:57:42;;;;;;;8.80;5.63;;;9.90;99.90;;;;;;7374498;19;20647;-60
2023/09/15 06:00:09;;;;;;;7.72;6.10;;;10.00;99.90;;;;;;7375149;19;20470;-60
2023/09/15 06:02:38;;;;;;;8.27;6.13;;;10.00;99.90;;;;;;7375293;19;20024;-59
2023/09/15 06:05:05;;;;;;;8.50;6.15;;;10.00;99.90;;;;;;7372988;19;20033;-60
2023/09/15 06:07:31;;;;;;;11.30;6.28;;;10.10;99.90;;;;;;7373276;19;20022;-61
2023/09/15 06:09:57;;;;;;;12.00;6.40;;;10.20;99.90;;;;;;7375234;19;20026;-60
2023/09/15 06:12:23;;;;;;;9.68;5.93;;;10.30;99.90;;;;;;7374841;19;20482;-63
2023/09/15 06:14:49;;;;;;;9.45;6.63;;;10.40;99.90;;;;;;7375195;19;20839;-60
2023/09/15 06:17:15;;;;;;;10.25;6.07;;;10.50;99.90;;;;;;7375459;19;20358;-60
2023/09/15 06:19:42;;;;;;;9.25;5.95;;;10.60;99.90;;;;;;7376512;19;20022;-60
2023/09/15 06:22:08;;;;;;;13.82;8.27;;;10.70;99.90;;;;;;7370626;19;20032;-64
2023/09/15 06:24:34;;;;;;;8.43;6.28;;;10.80;99.90;;;;;;7371186;19;20497;-61
2023/09/15 06:27:00;;;;;;;11.40;8.05;;;10.90;99.90;;;;;;7374667;19;20086;-60
2023/09/15 06:29:26;;;;;;;9.40;7.72;;;11.00;99.90;;;;;;7374634;19;20022;-61
2023/09/15 06:31:52;;;;;;;12.15;6.25;;;11.10;99.90;;;;;;7378773;19;20022;-64
2023/09/15 06:34:19;;;;;;;9.95;5.55;;;11.30;99.90;;;;;;7372731;19;20052;-63
2023/09/15 06:36:45;;;;;;;7.93;5.28;;;11.50;99.90;;;;;;7372791;19;20022;-63
2023/09/15 06:39:11;;;;;;;7.68;5.10;;;11.70;99.90;;;;;;7374983;19;20026;-61
2023/09/15 06:41:37;;;;;;;11.95;5.28;;;11.90;99.90;;;;;;7374968;19;20047;-61
2023/09/15 06:44:05;;;;;;;8.13;4.93;;;12.10;99.90;;;;;;7371611;19;20015;-64
2023/09/15 06:46:31;;;;;;;12.95;5.50;;;12.40;99.90;;;;;;7373547;19;20022;-62
2023/09/15 06:48:57;;;;;;;7.13;3.95;;;12.60;99.90;;;;;;7379310;19;20015;-62
2023/09/15 06:51:24;;;;;;;6.30;4.10;;;12.90;99.90;;;;;;7376151;19;20135;-64
2023/09/15 06:53:52;;;;;;;12.35;5.20;;;13.10;99.90;;;;;;7372095;19;20010;-64
2023/09/15 06:56:18;;;;;;;7.55;4.07;;;13.40;99.90;;;;;;7376393;19;20650;-64
2023/09/15 06:58:44;;;;;;;8.60;4.00;;;13.60;99.90;;;;;;7372034;19;20033;-65
2023/09/15 07:01:10;;;;;;;7.28;3.45;;;13.90;99.90;;;;;;7374272;19;20433;-65
2023/09/15 07:03:56;;;;;;;8.13;3.90;;;14.20;99.90;;;;;;7367803;19;20018;-64
2023/09/15 07:06:23;;;;;;;5.40;3.53;;;14.50;99.90;;;;;;7376491;19;20161;-61
2023/09/15 07:09:09;;;;;;;6.45;3.78;;;14.80;99.90;;;;;;7374340;19;20089;-60
2023/09/15 07:11:35;;;;;;;8.25;3.42;;;15.20;99.90;;;;;;7374292;19;20043;-63
2023/09/15 07:14:21;;;;;;;9.00;4.97;;;15.50;99.90;;;;;;7376221;19;20015;-66
2023/09/15 07:16:48;;;;;;;86.80;77.93;;;16.20;99.90;;;;;;7371598;19;20022;-65
2023/09/15 07:19:14;;;;;;;83.97;75.60;;;16.70;99.90;;;;;;7374543;19;20010;-66
2023/09/15 07:21:43;;;;;;;14.88;11.73;;;16.80;99.90;;;;;;7368033;19;20015;-65
2023/09/15 07:24:10;;;;;;;7.82;5.65;;;17.40;99.90;;;;;;7375759;19;20014;-66
2023/09/15 07:26:36;;;;;;;20.23;13.38;;;17.60;99.90;;;;;;7371266;19;20022;-66
2023/09/15 07:29:03;;;;;;;10.73;7.95;;;17.80;99.90;;;;;;7372488;19;20029;-66
2023/09/15 07:31:34;;;;;;;14.73;13.13;;;18.20;99.90;;;;;;7371457;19;20488;-66
2023/09/15 07:34:00;;;;;;;8.23;3.97;;;18.50;99.90;;;;;;7368969;19;20018;-67
2023/09/15 07:36:26;;;;;;;7.68;4.30;;;18.60;99.90;;;;;;7371095;19;20389;-67
2023/09/15 07:38:53;;;;;;;7.35;3.47;;;19.00;99.90;;;;;;7370721;19;20046;-67
2023/09/15 07:41:19;;;;;;;7.18;3.90;;;19.10;99.90;;;;;;7363893;19;20026;-65
2023/09/15 07:43:46;;;;;;;89.30;80.38;;;19.30;99.90;;;;;;7368833;19;20022;-67
2023/09/15 07:46:16;;;;;;;9.70;5.95;;;19.40;99.90;;;;;;7370398;19;20098;-67
2023/09/15 07:48:43;;;;;;;19.75;17.60;;;19.60;99.90;;;;;;7368903;19;20022;-66
2023/09/15 07:51:32;;;;;;;11.63;5.90;;;19.80;99.90;;;;;;7373262;19;20078;-66
2023/09/15 07:53:58;;;;;;;10.32;5.57;;;20.20;99.90;;;;;;7375666;19;20022;-67
2023/09/15 07:56:25;;;;;;;7.63;3.92;;;20.60;99.90;;;;;;7375458;19;20029;-63
2023/09/15 07:58:51;;;;;;;7.00;4.63;;;20.70;99.90;;;;;;7373695;19;20485;-66
2023/09/15 08:01:18;;;;;;;13.50;9.77;;;21.00;99.90;;;;;;7374375;19;20015;-63
2023/09/15 08:03:45;;;;;;;7.05;3.33;;;21.20;99.90;;;;;;7372659;19;20565;-65
2023/09/15 08:06:12;;;;;;;8.85;4.05;;;21.40;99.90;;;;;;7374953;19;20378;-65
2023/09/15 08:08:38;;;;;;;13.63;10.07;;;21.70;99.90;;;;;;7373179;19;20018;-66
2023/09/15 08:11:04;;;;;;;10.57;5.57;;;21.40;99.90;;;;;;7370843;19;20030;-63
2023/09/15 08:13:31;;;;;;;24.70;20.30;;;21.40;99.90;;;;;;7375411;19;20025;-63
2023/09/15 08:15:57;;;;;;;20.90;18.73;;;21.80;99.90;;;;;;7374608;19;20022;-63
2023/09/15 08:18:23;;;;;;;10.40;5.18;;;21.80;99.90;;;;;;7373882;19;20006;-64
2023/09/15 08:20:50;;;;;;;11.23;5.38;;;22.20;99.90;;;;;;7373730;19;20741;-64
2023/09/15 08:23:16;;;;;;;7.20;3.10;;;22.40;99.90;;;;;;7374220;19;20081;-64
2023/09/15 08:25:43;;;;;;;8.68;5.90;;;22.30;99.90;;;;;;7370576;19;20106;-64
2023/09/15 08:28:09;;;;;;;8.38;3.90;;;22.90;99.30;;;;;;7374608;19;20482;-63
2023/09/15 08:30:36;;;;;;;7.88;4.50;;;23.10;97.00;;;;;;7371019;19;20505;-64
2023/09/15 08:33:03;;;;;;;10.55;5.53;;;23.00;96.00;;;;;;7370620;19;20014;-63
2023/09/15 08:35:30;;;;;;;5.70;2.92;;;23.10;95.30;;;;;;7370844;19;20098;-63
2023/09/15 08:37:56;;;;;;;10.57;7.53;;;23.20;97.00;;;;;;7371505;19;20466;-63
2023/09/15 08:40:51;;;;;;;13.70;10.00;;;23.50;94.20;;;;;;7367114;19;20018;-63
2023/09/15 08:43:19;;;;;;;8.65;6.55;;;23.50;92.70;;;;;;7371651;19;20707;-63
2023/09/15 08:45:45;;;;;;;6.28;3.42;;;23.90;94.20;;;;;;7370764;19;20034;-63
2023/09/15 08:48:16;;;;;;;6.65;3.10;;;24.20;93.20;;;;;;7372292;19;20022;-64
2023/09/15 08:50:44;;;;;;;12.48;9.73;;;24.50;93.00;;;;;;7370994;19;20015;-63
2023/09/15 08:53:11;;;;;;;7.63;3.30;;;24.60;92.60;;;;;;7372546;19;20810;-63
2023/09/15 08:55:37;;;;;;;7.30;3.10;;;24.90;90.70;;;;;;7372035;19;20093;-64
2023/09/15 08:58:05;;;;;;;6.55;2.80;;;25.10;87.40;;;;;;7371515;19;20014;-63
2023/09/15 09:00:32;;;;;;;6.40;3.22;;;25.60;84.90;;;;;;7373255;19;20480;-63
2023/09/15 09:02:59;;;;;;;5.13;2.28;;;25.20;84.40;;;;;;7370789;19;20033;-65
2023/09/15 09:05:29;;;;;;;8.10;4.43;;;25.70;83.90;;;;;;7370847;19;20056;-64
2023/09/15 09:07:59;;;;;;;13.98;7.97;;;26.00;80.40;;;;;;7374214;19;20333;-63
2023/09/15 09:10:26;;;;;;;7.60;3.80;;;26.40;77.30;;;;;;7369968;19;20025;-64
2023/09/15 09:12:52;;;;;;;10.18;6.63;;;26.60;73.30;;;;;;7372228;19;20023;-65
2023/09/15 09:15:21;;;;;;;5.43;2.10;;;26.60;73.10;;;;;;7365905;19;20643;-62
2023/09/15 09:17:47;;;;;;;8.95;5.03;;;26.70;71.30;;;;;;7372337;19;20018;-62
2023/09/15 09:20:27;;;;;;;10.35;7.53;;;27.00;70.10;;;;;;7369241;19;20082;-62
2023/09/15 09:22:54;;;;;;;17.00;15.10;;;26.70;66.00;;;;;;7373093;19;20057;-63
2023/09/15 09:25:28;;;;;;;4.93;2.00;;;26.80;67.00;;;;;;7370193;19;20018;-66
2023/09/15 09:27:55;;;;;;;7.68;2.10;;;26.60;65.90;;;;;;7368749;19;20489;-64
2023/09/15 09:30:29;;;;;;;6.63;2.28;;;26.50;66.80;;;;;;7373101;19;20015;-64
2023/09/15 09:32:56;;;;;;;5.45;2.05;;;26.60;65.80;;;;;;7370731;19;20014;-65
2023/09/15 09:35:23;;;;;;;6.00;1.98;;;26.40;67.20;;;;;;7369891;19;20019;-64
2023/09/15 09:38:13;;;;;;;6.07;2.20;;;26.50;66.60;;;;;;7369512;19;20022;-63
2023/09/15 09:40:39;;;;;;;7.93;2.45;;;27.00;64.40;;;;;;7368375;19;20017;-64
2023/09/15 09:43:06;;;;;;;5.68;1.90;;;26.80;63.70;;;;;;7375055;19;20010;-63
2023/09/15 09:45:32;;;;;;;3.53;2.00;;;27.10;63.30;;;;;;7367138;19;20464;-63
2023/09/15 09:48:02;;;;;;;5.38;2.33;;;26.90;61.90;;;;;;7368799;19;20014;-63
2023/09/15 09:50:29;;;;;;;7.13;1.85;;;26.80;62.00;;;;;;7361037;19;20019;-63
2023/09/15 09:53:24;;;;;;;5.80;2.47;;;27.10;61.70;;;;;;7367865;19;20406;-64
2023/09/15 09:55:52;;;;;;;6.28;2.42;;;27.20;60.70;;;;;;7370099;19;20037;-63
2023/09/15 09:58:18;;;;;;;7.97;3.85;;;27.00;60.70;;;;;;7371577;19;20018;-63
2023/09/15 10:00:48;;;;;;;4.85;2.20;;;27.40;59.30;;;;;;7370525;19;20030;-62
2023/09/15 10:03:18;;;;;;;4.97;2.25;;;27.20;58.80;;;;;;7369112;19;20018;-63
2023/09/15 10:05:44;;;;;;;7.28;2.65;;;27.50;59.50;;;;;;7369026;19;20023;-63
2023/09/15 10:08:11;;;;;;;5.97;2.60;;;28.00;58.30;;;;;;7369159;19;20018;-63
2023/09/15 10:10:42;;;;;;;7.18;2.53;;;28.30;56.70;;;;;;7367094;19;20516;-64
2023/09/15 10:13:08;;;;;;;7.22;4.25;;;28.50;58.70;;;;;;7372679;19;20023;-64
2023/09/15 10:15:35;;;;;;;5.80;2.60;;;28.20;56.80;;;;;;7373916;19;20011;-64
2023/09/15 10:18:06;;;;;;;4.95;2.08;;;28.60;55.70;;;;;;7370720;19;20049;-64
2023/09/15 10:20:37;;;;;;;5.45;2.47;;;29.00;55.50;;;;;;7369785;19;20018;-64
2023/09/15 10:23:05;;;;;;;4.38;2.13;;;29.40;54.70;;;;;;7369312;19;20043;-63
2023/09/15 10:25:52;;;;;;;9.65;7.25;;;29.50;54.50;;;;;;7371364;19;20014;-64
2023/09/15 10:28:21;;;;;;;4.85;1.90;;;28.90;52.70;;;;;;7378530;19;20025;-64
2023/09/15 10:30:47;;;;;;;5.32;2.13;;;29.40;52.50;;;;;;7375888;19;20537;-64
2023/09/15 10:33:13;;;;;;;5.38;2.15;;;29.00;51.90;;;;;;7379949;19;20014;-64
2023/09/15 10:35:43;;;;;;;6.78;2.17;;;29.50;51.60;;;;;;7375193;19;20081;-64
2023/09/15 10:38:09;;;;;;;4.78;2.10;;;29.40;51.80;;;;;;7381360;19;20348;-64
2023/09/15 10:40:50;;;;;;;6.80;2.30;;;29.80;50.80;;;;;;7373830;19;20045;-64
2023/09/15 10:43:17;;;;;;;;;;;29.10;50.40;;;;;;7378889;19;20054;-64
2023/09/15 10:46:02;;;;;;;5.45;2.90;;;29.20;49.60;;;;;;7376939;19;19919;-64
2023/09/15 10:48:48;;;;;;;5.15;2.30;;;29.80;51.20;;;;;;7375376;19;20019;-64
2023/09/15 10:51:35;;;;;;;5.47;1.67;;;30.00;49.40;;;;;;7375896;19;20382;-64
2023/09/15 10:54:02;;;;;;;6.13;2.15;;;30.00;49.00;;;;;;7378187;19;20015;-64
2023/09/15 10:56:32;;;;;;;4.43;1.73;;;30.20;49.00;;;;;;7375710;19;20014;-64
2023/09/15 10:58:59;;;;;;;4.50;2.13;;;30.40;49.80;;;;;;7377987;19;20263;-64
2023/09/15 11:01:28;;;;;;;6.77;2.20;;;30.20;49.20;;;;;;7378464;19;20081;-64
2023/09/15 11:03:56;;;;;;;5.35;1.80;;;30.00;49.20;;;;;;7374545;19;20299;-64
2023/09/15 11:06:28;;;;;;;9.15;3.50;;;30.60;48.90;;;;;;7379132;19;21056;-64
2023/09/15 11:09:16;;;;;;;6.05;3.00;;;30.40;48.70;;;;;;7369195;19;20033;-63
2023/09/15 11:11:52;;;;;;;5.57;2.30;;;30.00;49.50;;;;;;7374898;19;20015;-64
2023/09/15 11:14:38;;;;;;;5.30;2.00;;;30.90;47.90;;;;;;7374344;19;20098;-65
2023/09/15 11:17:08;;;;;;;4.72;2.05;;;31.20;48.60;;;;;;7373254;19;20033;-64
2023/09/15 11:19:37;;;;;;;6.32;1.77;;;30.80;48.30;;;;;;7372788;19;20014;-63
2023/09/15 11:22:03;;;;;;;3.55;1.50;;;30.80;48.50;;;;;;7376151;19;20019;-64
2023/09/15 11:24:33;;;;;;;6.70;2.40;;;30.70;47.90;;;;;;7375371;19;20014;-64
2023/09/15 11:27:00;;;;;;;3.80;2.50;;;31.00;47.80;;;;;;7377280;19;20016;-63
2023/09/15 11:29:31;;;;;;;8.30;2.25;;;30.80;48.10;;;;;;7374563;19;20022;-63
2023/09/15 11:31:58;;;;;;;4.65;1.50;;;30.10;47.60;;;;;;7375834;19;20537;-63
2023/09/15 11:34:26;;;;;;;6.90;2.45;;;30.20;48.90;;;;;;7376849;19;20078;-64
2023/09/15 11:36:58;;;;;;;4.82;1.92;;;29.80;48.50;;;;;;7372259;19;20018;-64
2023/09/15 11:39:31;;;;;;;6.95;2.75;;;29.20;48.90;;;;;;7376905;19;20022;-64
2023/09/15 11:41:57;;;;;;;4.37;1.70;;;28.20;49.70;;;;;;7376400;19;20018;-63
2023/09/15 11:44:32;;;;;;;6.20;2.20;;;27.60;51.20;;;;;;7373312;19;20018;-64
2023/09/15 11:46:59;;;;;;;6.03;1.70;;;27.30;52.50;;;;;;7373584;19;20025;-63
2023/09/15 11:49:27;;;;;;;4.03;1.90;;;27.80;53.80;;;;;;7370565;19;20018;-64
2023/09/15 11:51:55;;;;;;;6.03;2.20;;;28.80;52.40;;;;;;7373651;19;20541;-64
2023/09/15 11:54:22;;;;;;;5.45;2.00;;;29.40;51.30;;;;;;7373972;19;20028;-65
2023/09/15 11:56:48;;;;;;;8.93;4.07;;;29.50;49.40;;;;;;7372636;19;20023;-64
2023/09/15 11:59:15;;;;;;;9.00;6.18;;;30.00;49.40;;;;;;7375237;19;20022;-65
2023/09/15 12:01:42;;;;;;;5.45;1.92;;;30.80;49.40;;;;;;7372686;19;20024;-65
2023/09/15 12:04:09;;;;;;;5.47;2.08;;;30.20;47.90;;;;;;7371606;19;20101;-65
2023/09/15 12:06:35;;;;;;;3.17;1.70;;;31.00;47.60;;;;;;7371448;19;20018;-65
2023/09/15 12:09:03;;;;;;;4.53;1.95;;;31.40;47.40;;;;;;7374014;19;20131;-65
2023/09/15 12:11:30;;;;;;;6.55;2.67;;;30.90;47.40;;;;;;7374812;19;20031;-65
2023/09/15 12:13:56;;;;;;;3.75;1.90;;;30.60;47.70;;;;;;7373425;19;20014;-65
2023/09/15 12:16:27;;;;;;;5.97;2.10;;;30.40;47.30;;;;;;7374657;19;20797;-65
2023/09/15 12:18:55;;;;;;;5.88;2.20;;;29.30;47.90;;;;;;7372676;19;20358;-65
2023/09/15 12:21:26;;;;;;;6.00;2.00;;;29.40;49.20;;;;;;7373851;19;20099;-64
2023/09/15 12:23:56;;;;;;;4.82;2.20;;;29.30;49.30;;;;;;7370595;19;20078;-64
2023/09/15 12:26:25;;;;;;;8.68;2.40;;;29.40;50.10;;;;;;7375780;19;20505;-64
2023/09/15 12:28:54;;;;;;;6.35;2.30;;;29.20;50.30;;;;;;7370006;19;20039;-64
2023/09/15 12:31:21;;;;;;;4.65;1.90;;;29.30;50.50;;;;;;7374549;19;20085;-64
2023/09/15 12:33:52;;;;;;;3.95;1.83;;;29.70;51.20;;;;;;7369224;19;20019;-64
2023/09/15 12:36:22;;;;;;;6.20;2.70;;;30.30;49.10;;;;;;7374915;19;20018;-64
2023/09/15 12:38:50;;;;;;;6.68;2.80;;;30.20;49.60;;;;;;7375133;19;20018;-64
2023/09/15 12:41:17;;;;;;;5.97;1.80;;;30.90;48.00;;;;;;7373335;19;20678;-64
2023/09/15 12:43:43;;;;;;;5.82;2.38;;;31.00;47.50;;;;;;7375206;19;20025;-64
2023/09/15 12:46:10;;;;;;;5.38;2.42;;;30.80;47.60;;;;;;7368048;19;20027;-63
2023/09/15 12:48:36;;;;;;;5.38;2.05;;;31.20;47.30;;;;;;7368387;19;20387;-65
2023/09/15 12:51:22;;;;;;;4.82;2.40;;;31.10;47.40;;;;;;7366924;19;20391;-66
2023/09/15 12:53:49;;;;;;;6.00;2.58;;;31.80;47.60;;;;;;7372934;19;20661;-65
2023/09/15 12:56:15;;;;;;;9.77;2.63;;;31.80;47.50;;;;;;7371952;19;20018;-64